Unbenanntes Dokument
Flugplatz Bielefeld Platzwetter

 

Aktuelles Platzwetter am Flugplatz Bielefeld EDLI

20.06.19 ,05:10 Uhr

METAR EDLI 200510Z 20003KT 7000 ///011 16/16 Q1010

 

Windwerte

 

Wolkenuntergrenzen

Wind aktuell:190 ° mit 3 kt
Wind 10 min Extrem:
160 ° bis 230 ° mit 2 kt bis 5 kt
Seitenwindkomponente: 3.0 kt
Wolkengrenze 1: 1100 ft
Wolkengrenze 2:
Wolkengrenze 3:

Webcam

Temperatur

       

Sichtweite:

7.000 Meter

16.0 °C
Taupunkt: 16.0 °C
Luftfeuchtigkeit: 100 %

Luftdruck:

QNH: 1010 hPa (29.83 in Hg)
QFE: 994 hPa (29.35 in Hg)

Diese Daten werden automatisch ermittelt bzw. übertragen und sind nicht geprüft. Für die Richtigkeit wird daher keine Gewähr übernommen. Sie ersetzen im übrigen nicht die Flugwetterberatung. Alle Zeitangaben beziehen sich auf UTC. Die Seite wird einmal die Minute aktualisiert! Sollten Sie ein ältere Seite haben, so drücken Sie bitte auf den Reload Button Ihres Browsers!